Time;durP1;ratioP1;P1;durP2;ratioP2;P2;SDS_P1;SDS_P2;PMS_P1;PMS_P2;Temp;Humidity;BMP_temperature;BMP_pressure;BME280_temperature;BME280_humidity;BME280_pressure;Samples;Min_cycle;Max_cycle;Signal;HPM_P1;HPM_P2
2021/11/03 00:02:20;;;;;;;;;;;;;;;-144.99;100.00;52492.94;4971715;28;20391;-66
2021/11/03 00:04:46;;;;;;;;;;;;;;;-144.99;100.00;52476.63;4971179;28;19985;-67
2021/11/03 00:07:14;;;;;;;;;;;;;;;-144.99;100.00;52501.09;4971914;28;20253;-66
2021/11/03 00:09:40;;;;;;;;;;;;;;;-144.99;100.00;52490.91;4972035;28;20005;-65
2021/11/03 00:12:08;;;;;;;;;;;;;;;-144.99;100.00;52464.41;4971361;28;19998;-65
2021/11/03 00:14:35;;;;;;;;;;;;;;;-144.99;100.00;52484.78;4960855;28;19975;-68
2021/11/03 00:17:02;;;;;;;;;;;;;;;-144.99;100.00;52470.50;4979460;28;19978;-66
2021/11/03 00:19:28;;;;;;;;;;;;;;;-144.99;100.00;52439.94;4972352;28;19989;-68
2021/11/03 00:21:54;;;;;;;;;;;;;;;-144.99;100.00;52456.25;4977798;28;19994;-68
2021/11/03 00:24:21;;;;;;;;;;;;;;;-144.99;100.00;52476.63;4965113;28;19981;-68
2021/11/03 00:26:47;;;;;;;;;;;;;;;-144.99;100.00;52462.34;4966226;28;20363;-68
2021/11/03 00:29:13;;;;;;;;;;;;;;;-144.99;100.00;52448.09;4972027;28;19982;-66
2021/11/03 00:31:41;;;;;;;;;;;;;;;-144.99;100.00;52501.09;4974833;28;19986;-67
2021/11/03 00:34:08;;;;;;;;;;;;;;;-144.99;100.00;52484.78;4994717;28;20046;-68
2021/11/03 00:36:34;;;;;;;;;;;;;;;-144.99;100.00;52435.88;4988319;28;20427;-66
2021/11/03 00:39:01;;;;;;;;;;;;;;;-144.99;100.00;52472.56;4974481;28;20412;-65
2021/11/03 00:41:27;;;;;;;;;;;;;;;-144.99;100.00;52425.66;4971401;28;20002;-68
2021/11/03 00:43:54;;;;;;;;;;;;;;;-144.99;100.00;52497.00;4972975;28;19994;-65
2021/11/03 00:46:20;;;;;;;;;;;;;;;-144.99;100.00;52452.16;4976184;28;19981;-65
2021/11/03 00:48:48;;;;;;;;;;;;;;;-144.99;100.00;52450.13;4971891;28;19987;-65
2021/11/03 00:51:14;;;;;;;;;;;;;;;-144.99;100.00;52529.63;4971830;28;19991;-67
2021/11/03 00:53:40;;;;;;;;;;;;;;;-144.99;100.00;52470.50;4975104;28;19999;-64
2021/11/03 00:56:07;;;;;;;;;;;;;;;-144.99;100.00;52484.78;4974158;28;19989;-67
2021/11/03 00:58:33;;;;;;;;;;;;;;;-144.99;100.00;52492.94;4975494;28;19982;-70
2021/11/03 01:01:00;;;;;;;;;;;;;;;-144.99;100.00;52464.41;4975230;28;19998;-69
2021/11/03 01:03:26;;;;;;;;;;;;;;;-144.99;100.00;52480.72;4975534;28;20502;-67
2021/11/03 01:05:54;;;;;;;;;;;;;;;-144.99;100.00;52454.22;4967575;28;20411;-69
2021/11/03 01:08:20;;;;;;;;;;;;;;;-144.99;100.00;52482.75;4975539;28;19986;-69
2021/11/03 01:10:48;;;;;;;;;;;;;;;-144.99;100.00;52484.78;4975193;28;20001;-69
2021/11/03 01:13:16;;;;;;;;;;;;;;;-144.99;100.00;52472.56;4972241;28;19995;-67
2021/11/03 01:15:42;;;;;;;;;;;;;;;-144.99;100.00;52448.09;4983058;28;19974;-67
2021/11/03 01:18:09;;;;;;;;;;;;;;;-144.99;100.00;52435.88;4982629;28;19963;-67
2021/11/03 01:20:36;;;;;;;;;;;;;;;-144.99;100.00;52468.47;4974838;28;19989;-67
2021/11/03 01:23:04;;;;;;;;;;;;;;;-144.99;100.00;52460.31;4980469;28;20089;-68
2021/11/03 01:25:31;;;;;;;;;;;;;;;-144.99;100.00;52448.09;4974704;28;19982;-68
2021/11/03 01:27:57;;;;;;;;;;;;;;;-144.99;100.00;52486.81;4974765;28;19990;-68
2021/11/03 01:30:24;;;;;;;;;;;;;;;-144.99;100.00;52472.56;4974861;28;20440;-68
2021/11/03 01:32:51;;;;;;;;;;;;;;;-144.99;100.00;52452.16;4975720;28;19998;-68
2021/11/03 01:35:18;;;;;;;;;;;;;;;-144.99;100.00;52452.16;4988855;28;19978;-68
2021/11/03 01:37:45;;;;;;;;;;;;;;;-144.99;100.00;52499.06;4974404;28;19983;-69
2021/11/03 01:40:14;;;;;;;;;;;;;;;-144.99;100.00;52476.63;4974855;28;19974;-69
2021/11/03 01:42:41;;;;;;;;;;;;;;;-144.99;100.00;52444.03;4973159;28;20386;-70
2021/11/03 01:45:09;;;;;;;;;;;;;;;-144.99;100.00;52456.25;4979216;28;20069;-68
2021/11/03 01:47:40;;;;;;;;;;;;;;;-144.99;100.00;52460.31;4979854;28;19979;-66
2021/11/03 01:50:10;;;;;;;;;;;;;;;-144.99;100.00;52490.91;4974792;28;20009;-66
2021/11/03 01:52:36;;;;;;;;;;;;;;;-144.99;100.00;52466.44;4974383;28;20298;-65
2021/11/03 01:55:07;;;;;;;;;;;;;;;-144.99;100.00;52452.16;4973437;28;19985;-66
2021/11/03 01:57:36;;;;;;;;;;;;;;;-144.99;100.00;52450.13;4973978;28;19986;-66
2021/11/03 02:00:06;;;;;;;;;;;;;;;-144.99;100.00;52419.56;4974521;28;20237;-65
2021/11/03 02:02:34;;;;;;;;;;;;;;;-144.99;100.00;52468.47;4974223;28;20064;-66
2021/11/03 02:05:00;;;;;;;;;;;;;;;-144.99;100.00;52488.84;4971786;28;20447;-66
2021/11/03 02:07:27;;;;;;;;;;;;;;;-144.99;100.00;52452.16;4973319;28;20451;-67
2021/11/03 02:09:54;;;;;;;;;;;;;;;-144.99;100.00;52444.03;4974284;28;19982;-67
2021/11/03 02:12:21;;;;;;;;;;;;;;;-144.99;100.00;52460.31;4973674;28;19998;-67
2021/11/03 02:14:49;;;;;;;;;;;;;;;-144.99;100.00;52427.72;4962191;28;19981;-67
2021/11/03 02:17:16;;;;;;;;;;;;;;;-144.99;100.00;52456.25;4982206;28;20007;-68
2021/11/03 02:19:42;;;;;;;;;;;;;;;-144.99;100.00;52437.91;4978227;28;19983;-69
2021/11/03 02:22:12;;;;;;;;;;;;;;;-144.99;100.00;52497.00;4996967;28;20016;-69
2021/11/03 02:24:40;;;;;;;;;;;;;;;-144.99;100.00;52456.25;4987927;28;19987;-67
2021/11/03 02:27:08;;;;;;;;;;;;;;;-144.99;100.00;52431.78;4978474;28;19983;-66
2021/11/03 02:29:35;;;;;;;;;;;;;;;-144.99;100.00;52472.56;4985976;28;19982;-66
2021/11/03 02:32:12;;;;;;;;;;;;;;;-144.99;100.00;52452.16;4991007;28;19982;-68
2021/11/03 02:34:38;;;;;;;;;;;;;;;-144.99;100.00;52488.84;5005732;28;19985;-67
2021/11/03 02:37:25;;;;;;;;;;;;;;;-144.99;100.00;52486.81;4985955;28;19979;-64
2021/11/03 02:39:54;;;;;;;;;;;;;;;-144.99;100.00;52472.56;4974863;28;19986;-64
2021/11/03 02:42:23;;;;;;;;;;;;;;;-144.99;100.00;52456.25;4973024;28;20452;-64
2021/11/03 02:44:51;;;;;;;;;;;;;;;-144.99;100.00;52456.25;4973442;28;19981;-64
2021/11/03 02:47:17;;;;;;;;;;;;;;;-144.99;100.00;52488.84;4979574;28;19979;-64
2021/11/03 02:49:43;;;;;;;;;;;;;;;-144.99;100.00;52456.25;4973706;28;19982;-64
2021/11/03 02:52:14;;;;;;;;;;;;;;;-144.99;100.00;52456.25;4973559;28;19999;-64
2021/11/03 02:54:40;;;;;;;;;;;;;;;-144.99;100.00;52472.56;4962787;28;19986;-64
2021/11/03 02:57:07;;;;;;;;;;;;;;;-144.99;100.00;52444.03;4973751;28;19979;-64
2021/11/03 02:59:35;;;;;;;;;;;;;;;-144.99;100.00;52452.16;4973232;28;20045;-65
2021/11/03 03:02:02;;;;;;;;;;;;;;;-144.99;100.00;52444.03;4973544;28;20003;-68
2021/11/03 03:04:30;;;;;;;;;;;;;;;-144.99;100.00;52448.09;4968069;28;19979;-68
2021/11/03 03:06:56;;;;;;;;;;;;;;;-144.99;100.00;52446.06;4973814;28;19983;-68
2021/11/03 03:09:23;;;;;;;;;;;;;;;-144.99;100.00;52472.56;4972854;28;19993;-68
2021/11/03 03:11:54;;;;;;;;;;;;;;;-144.99;100.00;52435.88;4973169;28;19989;-68
2021/11/03 03:14:22;;;;;;;;;;;;;;;-144.99;100.00;52501.09;4978105;28;19993;-67
2021/11/03 03:16:50;;;;;;;;;;;;;;;-144.99;100.00;52435.88;4988298;28;19988;-68
2021/11/03 03:19:17;;;;;;;;;;;;;;;-144.99;100.00;52427.72;4975569;28;20464;-68
2021/11/03 03:21:44;;;;;;;;;;;;;;;-144.99;100.00;52452.16;4977411;28;19998;-68
2021/11/03 03:24:12;;;;;;;;;;;;;;;-144.99;100.00;52492.94;4975923;28;19982;-69
2021/11/03 03:26:39;;;;;;;;;;;;;;;-144.99;100.00;52429.75;4975862;28;19992;-68
2021/11/03 03:29:06;;;;;;;;;;;;;;;-144.99;100.00;52484.78;4973085;28;19983;-68
2021/11/03 03:31:33;;;;;;;;;;;;;;;-144.99;100.00;52452.16;4971943;28;19975;-68
2021/11/03 03:34:02;;;;;;;;;;;;;;;-144.99;100.00;52439.94;4987507;28;19985;-68
2021/11/03 03:36:29;;;;;;;;;;;;;;;-144.99;100.00;52411.41;4997103;28;19998;-69
2021/11/03 03:38:56;;;;;;;;;;;;;;;-144.99;100.00;52482.75;4989504;28;20459;-68
2021/11/03 03:41:24;;;;;;;;;;;;;;;-144.99;100.00;52476.63;4979304;28;19975;-68
2021/11/03 03:43:51;;;;;;;;;;;;;;;-144.99;100.00;52448.09;4985306;28;19998;-68
2021/11/03 03:46:17;;;;;;;;;;;;;;;-144.99;100.00;52415.47;4996870;28;19981;-70
2021/11/03 03:48:44;;;;;;;;;;;;;;;-144.99;100.00;52439.94;4981135;28;20460;-74
2021/11/03 03:51:12;;;;;;;;;;;;;;;-144.99;100.00;52460.31;4969048;28;20440;-70
2021/11/03 03:53:38;;;;;;;;;;;;;;;-144.99;100.00;52456.25;4972101;28;20014;-69
2021/11/03 03:56:05;;;;;;;;;;;;;;;-144.99;100.00;52431.78;4971869;28;19956;-69
2021/11/03 03:58:31;;;;;;;;;;;;;;;-144.99;100.00;52468.47;4972576;28;20005;-69
2021/11/03 04:00:58;;;;;;;;;;;;;;;-144.99;100.00;52484.78;5000372;22;19994;-57
2021/11/03 04:03:24;;;;;;;;;;;;;;;-144.99;100.00;52454.22;4983423;28;19994;-59
2021/11/03 04:05:51;;;;;;;;;;;;;;;-144.99;100.00;52480.72;4990899;28;19993;-58
2021/11/03 04:08:20;;;;;;;;;;;;;;;-144.99;100.00;52456.25;4990874;28;19986;-62
2021/11/03 04:10:47;;;;;;;;;;;;;;;-144.99;100.00;52480.72;4991329;28;20159;-64
2021/11/03 04:13:14;;;;;;;;;;;;;;;-144.99;100.00;52450.13;4994861;28;19990;-60
2021/11/03 04:15:41;;;;;;;;;;;;;;;-144.99;100.00;52494.97;5001424;28;19981;-60
2021/11/03 04:18:07;;;;;;;;;;;;;;;-144.99;100.00;52427.72;4998197;28;19985;-61
2021/11/03 04:20:33;;;;;;;;;;;;;;;-144.99;100.00;52464.41;4990745;28;19990;-62
2021/11/03 04:23:00;;;;;;;;;;;;;;;-144.99;100.00;52444.03;4996429;28;19998;-62
2021/11/03 04:25:27;;;;;;;;;;;;;;;-144.99;100.00;52501.09;4990710;28;20350;-60
2021/11/03 04:27:54;;;;;;;;;;;;;;;-144.99;100.00;52439.94;4990202;28;19982;-60
2021/11/03 04:30:23;;;;;;;;;;;;;;;-144.99;100.00;52407.31;4990513;28;19983;-63
2021/11/03 04:32:49;;;;;;;;;;;;;;;-144.99;100.00;52468.47;4992390;28;20479;-64
2021/11/03 04:35:16;;;;;;;;;;;;;;;-144.99;100.00;52435.88;4990975;28;19975;-64
2021/11/03 04:37:44;;;;;;;;;;;;;;;-144.99;100.00;52452.16;4989716;28;20228;-64
2021/11/03 04:40:12;;;;;;;;;;;;;;;-144.99;100.00;52484.78;4990389;28;20037;-63
2021/11/03 04:42:40;;;;;;;;;;;;;;;-144.99;100.00;52492.94;4990088;28;20468;-63
2021/11/03 04:45:07;;;;;;;;;;;;;;;-144.99;100.00;52452.16;4997907;28;19981;-62
2021/11/03 04:47:34;;;;;;;;;;;;;;;-144.99;100.00;52427.72;4996276;28;19978;-62
2021/11/03 04:50:01;;;;;;;;;;;;;;;-144.99;100.00;52433.81;4990084;28;19982;-62
2021/11/03 04:52:28;;;;;;;;;;;;;;;-144.99;100.00;52456.25;4989874;28;20002;-62
2021/11/03 04:54:56;;;;;;;;;;;;;;;-144.99;100.00;52431.78;4989596;28;20332;-62
2021/11/03 04:57:22;;;;;;;;;;;;;;;-144.99;100.00;52472.56;4990003;28;20014;-66
2021/11/03 04:59:50;;;;;;;;;;;;;;;-144.99;100.00;52468.47;4990366;28;20015;-61
2021/11/03 05:02:17;;;;;;;;;;;;;;;-144.99;100.00;52456.25;4989917;28;20002;-61
2021/11/03 05:04:43;;;;;;;;;;;;;;;-144.99;100.00;52435.88;4989502;28;20380;-62
2021/11/03 05:07:10;;;;;;;;;;;;;;;-144.99;100.00;52460.31;4990842;28;19985;-62
2021/11/03 05:09:37;;;;;;;;;;;;;;;-144.99;100.00;52468.47;4990784;28;19989;-62
2021/11/03 05:12:03;;;;;;;;;;;;;;;-144.99;100.00;52488.84;4989635;28;20000;-66
2021/11/03 05:14:30;;;;;;;;;;;;;;;-144.99;100.00;52456.25;4987413;28;19975;-69
2021/11/03 05:16:57;;;;;;;;;;;;;;;-144.99;100.00;52492.94;4997846;28;19977;-69
2021/11/03 05:19:25;;;;;;;;;;;;;;;-144.99;100.00;52468.47;4992223;28;19986;-67
2021/11/03 05:21:52;;;;;;;;;;;;;;;-144.99;100.00;52492.94;4997999;28;20098;-67
2021/11/03 05:24:18;;;;;;;;;;;;;;;-144.99;100.00;52452.16;4989622;28;20248;-68
2021/11/03 05:26:46;;;;;;;;;;;;;;;-144.99;100.00;52472.56;4987843;28;20354;-67
2021/11/03 05:29:13;;;;;;;;;;;;;;;-144.99;100.00;52444.03;4990425;28;20089;-68
2021/11/03 05:31:39;;;;;;;;;;;;;;;-144.99;100.00;52501.09;4990462;28;20005;-67
2021/11/03 05:34:07;;;;;;;;;;;;;;;-144.99;100.00;52460.31;5000915;28;20404;-67
2021/11/03 05:36:33;;;;;;;;;;;;;;;-144.99;100.00;52427.72;4992990;28;19989;-66
2021/11/03 05:39:02;;;;;;;;;;;;;;;-144.99;100.00;52464.41;4991369;28;20002;-69
2021/11/03 05:41:28;;;;;;;;;;;;;;;-144.99;100.00;52415.47;4993659;28;19982;-67
2021/11/03 05:43:55;;;;;;;;;;;;;;;-144.99;100.00;52472.56;4989288;28;20310;-65
2021/11/03 05:46:27;;;;;;;;;;;;;;;-144.99;100.00;52448.09;4999240;28;19978;-70
2021/11/03 05:48:58;;;;;;;;;;;;;;;-144.99;100.00;52419.56;4993782;28;20407;-71
2021/11/03 05:51:26;;;;;;;;;;;;;;;-144.99;100.00;52411.41;4993038;28;20038;-70
2021/11/03 05:53:53;;;;;;;;;;;;;;;-144.99;100.00;52472.56;4993383;28;20509;-71
2021/11/03 05:56:19;;;;;;;;;;;;;;;-144.99;100.00;52480.72;4992648;28;19974;-70
2021/11/03 05:58:45;;;;;;;;;;;;;;;-144.99;100.00;52452.16;4993190;28;20053;-70
2021/11/03 06:01:12;;;;;;;;;;;;;;;-144.99;100.00;52456.25;4992593;28;19997;-70
2021/11/03 06:03:38;;;;;;;;;;;;;;;-144.99;100.00;52497.00;4991935;28;19994;-70
2021/11/03 06:06:05;;;;;;;;;;;;;;;-144.99;100.00;52448.09;4992271;28;20160;-70
2021/11/03 06:08:32;;;;;;;;;;;;;;;-144.99;100.00;52452.16;4992404;28;19983;-72
2021/11/03 06:11:00;;;;;;;;;;;;;;;-144.99;100.00;52454.22;4992270;28;19982;-69
2021/11/03 06:13:26;;;;;;;;;;;;;;;-144.99;100.00;52476.63;4990427;28;19994;-68
2021/11/03 06:15:53;;;;;;;;;;;;;;;-144.99;100.00;52439.94;4995324;28;19985;-70
2021/11/03 06:18:19;;;;;;;;;;;;;;;-144.99;100.00;52470.50;4997847;28;19978;-71
2021/11/03 06:20:46;;;;;;;;;;;;;;;-144.99;100.00;52415.47;4992662;28;20001;-70
2021/11/03 06:23:12;;;;;;;;;;;;;;;-144.99;100.00;52492.94;4997352;28;20451;-69
2021/11/03 06:25:40;;;;;;;;;;;;;;;-144.99;100.00;52468.47;4992416;28;20113;-70
2021/11/03 06:28:06;;;;;;;;;;;;;;;-144.99;100.00;52456.25;4991741;28;19989;-70
2021/11/03 06:30:34;;;;;;;;;;;;;;;-144.99;100.00;52427.72;4993023;28;19982;-71
2021/11/03 06:33:00;;;;;;;;;;;;;;;-144.99;100.00;52452.16;4996201;28;19990;-70
2021/11/03 06:35:28;;;;;;;;;;;;;;;-144.99;100.00;52456.25;4996959;28;19974;-70
2021/11/03 06:37:54;;;;;;;;;;;;;;;-144.99;100.00;52468.47;4992386;28;20009;-70
2021/11/03 06:40:23;;;;;;;;;;;;;;;-144.99;100.00;52492.94;4992041;28;20070;-70
2021/11/03 06:42:51;;;;;;;;;;;;;;;-144.99;100.00;52460.31;4992963;28;20015;-70
2021/11/03 06:45:18;;;;;;;;;;;;;;;-144.99;100.00;52460.31;5000275;28;19974;-72
2021/11/03 06:47:45;;;;;;;;;;;;;;;-144.99;100.00;52470.50;4997337;28;19978;-70
2021/11/03 06:50:14;;;;;;;;;;;;;;;-144.99;100.00;52456.25;4991461;28;19982;-70
2021/11/03 06:52:42;;;;;;;;;;;;;;;-144.99;100.00;52480.72;4991177;28;19998;-70
2021/11/03 06:55:09;;;;;;;;;;;;;;;-144.99;100.00;52448.09;4990680;28;20498;-70
2021/11/03 06:57:35;;;;;;;;;;;;;;;-144.99;100.00;52484.78;4990813;28;19984;-70
2021/11/03 07:00:05;;;;;;;;;;;;;;;-144.99;100.00;52433.81;4990978;28;19989;-70
2021/11/03 07:02:31;;;;;;;;;;;;;;;-144.99;100.00;52415.47;4991429;28;20006;-70
2021/11/03 07:04:57;;;;;;;;;;;;;;;-144.99;100.00;52427.72;4991324;28;19989;-70
2021/11/03 07:07:24;;;;;;;;;;;;;;;-144.99;100.00;52468.47;4991395;28;19982;-70
2021/11/03 07:09:50;;;;;;;;;;;;;;;-144.99;100.00;52454.22;4991249;28;19964;-70
2021/11/03 07:12:17;;;;;;;;;;;;;;;-144.99;100.00;52468.47;4990946;28;19965;-70
2021/11/03 07:14:43;;;;;;;;;;;;;;;-144.99;100.00;52423.63;4999771;28;19968;-69
2021/11/03 07:17:12;;;;;;;;;;;;;;;-144.99;100.00;52450.13;5001788;28;19971;-70
2021/11/03 07:19:39;;;;;;;;;;;;;;;-144.99;100.00;52448.09;4991622;28;20026;-69
2021/11/03 07:22:06;;;;;;;;;;;;;;;-144.99;100.00;52468.47;4998448;28;20469;-71
2021/11/03 07:24:32;;;;;;;;;;;;;;;-144.99;100.00;52448.09;4990945;28;20005;-69
2021/11/03 07:26:59;;;;;;;;;;;;;;;-144.99;100.00;52439.94;4989991;28;19982;-71
2021/11/03 07:29:25;;;;;;;;;;;;;;;-144.99;100.00;52456.25;4991517;28;19985;-70
2021/11/03 07:31:52;;;;;;;;;;;;;;;-144.99;100.00;52431.78;4991023;28;19990;-70
2021/11/03 07:34:20;;;;;;;;;;;;;;;-144.99;100.00;52403.25;5002425;28;20514;-70
2021/11/03 07:36:46;;;;;;;;;;;;;;;-144.99;100.00;52378.78;4994320;28;20015;-69
2021/11/03 07:39:13;;;;;;;;;;;;;;;-144.99;100.00;52415.47;4991075;28;19990;-70
2021/11/03 07:41:40;;;;;;;;;;;;;;;-144.99;100.00;52439.94;4990585;28;19989;-70
2021/11/03 07:44:07;;;;;;;;;;;;;;;-144.99;100.00;52460.31;4993743;28;19997;-70
2021/11/03 07:46:33;;;;;;;;;;;;;;;-144.99;100.00;52386.94;5000029;28;19980;-70
2021/11/03 07:49:00;;;;;;;;;;;;;;;-144.99;100.00;52407.31;4989633;28;19993;-70
2021/11/03 07:51:28;;;;;;;;;;;;;;;-144.99;100.00;52395.09;4990307;28;19990;-71
2021/11/03 07:53:58;;;;;;;;;;;;;;;-144.99;100.00;52435.88;4989884;28;20003;-70
2021/11/03 07:56:25;;;;;;;;;;;;;;;-144.99;100.00;52431.78;4990015;28;20029;-70
2021/11/03 07:58:53;;;;;;;;;;;;;;;-144.99;98.26;52431.78;4989698;28;19978;-70
2021/11/03 08:01:20;;;;;;;;;;;;;;;-144.99;96.57;52411.41;4990214;28;19978;-70
2021/11/03 08:03:46;;;;;;;;;;;;;;;-144.99;93.71;52403.25;4990539;28;20002;-71
2021/11/03 08:06:13;;;;;;;;;;;;;;;-144.99;92.48;52374.72;4990278;28;20445;-70
2021/11/03 08:08:46;;;;;;;;;;;;;;;-144.99;90.86;52397.13;4990720;28;19975;-70
2021/11/03 08:11:14;;;;;;;;;;;;;;;-144.99;89.08;52419.56;4989878;28;19982;-70
2021/11/03 08:13:41;;;;;;;;;;;;;;;-144.99;87.83;52415.47;4995904;28;19994;-71
2021/11/03 08:16:08;;;;;;;;;;;;;;;-144.99;86.32;52407.31;4989892;28;20347;-73
2021/11/03 08:18:38;;;;;;;;;;;;;;;-144.99;83.80;52415.47;4993374;28;19978;-68
2021/11/03 08:21:05;;;;;;;;;;;;;;;-144.99;82.67;52395.09;4977934;28;19929;-66
2021/11/03 08:23:31;;;;;;;;;;;;;;;-144.99;81.83;52395.09;4995931;28;20003;-67
2021/11/03 08:25:59;;;;;;;;;;;;;;;-144.99;80.51;52431.78;4990019;28;20133;-67
2021/11/03 08:28:25;;;;;;;;;;;;;;;-144.99;80.80;52386.94;4989820;28;19988;-73
2021/11/03 08:30:54;;;;;;;;;;;;;;;-144.99;81.19;52411.41;4989773;28;19982;-67
2021/11/03 08:33:22;;;;;;;;;;;;;;;-144.99;83.99;52421.59;4995865;28;20100;-67
2021/11/03 08:35:50;;;;;;;;;;;;;;;-144.99;86.12;52417.53;4998485;28;19974;-67
2021/11/03 08:38:20;;;;;;;;;;;;;;;-144.99;88.17;52458.28;4989568;28;20444;-66
2021/11/03 08:40:47;;;;;;;;;;;;;;;-144.99;89.78;52423.63;4989683;28;20066;-66
2021/11/03 08:43:18;;;;;;;;;;;;;;;-144.99;91.99;52439.94;4992985;28;20439;-67
2021/11/03 08:45:44;;;;;;;;;;;;;;;-144.99;95.00;52444.03;4998608;28;20006;-67
2021/11/03 08:48:11;;;;;;;;;;;;;;;-144.99;95.21;52439.94;4994086;28;20304;-66
2021/11/03 08:50:40;;;;;;;;;;;;;;;-144.99;96.43;52466.44;4989266;28;19978;-66
2021/11/03 08:53:07;;;;;;;;;;;;;;;-144.99;97.55;52454.22;4989008;28;20426;-66
2021/11/03 08:55:33;;;;;;;;;;;;;;;-144.99;97.03;52439.94;4989316;28;19982;-66
2021/11/03 08:58:00;;;;;;;;;;;;;;;-144.99;98.79;52466.44;4989224;28;20463;-65
2021/11/03 09:00:29;;;;;;;;;;;;;;;-144.99;99.69;52456.25;4989338;28;19985;-66
2021/11/03 09:02:56;;;;;;;;;;;;;;;-144.99;100.00;52452.16;4989603;28;20005;-68
2021/11/03 09:05:23;;;;;;;;;;;;;;;-144.99;100.00;52460.31;4989529;28;19982;-66
2021/11/03 09:07:49;;;;;;;;;;;;;;;-144.99;100.00;52431.78;4988692;28;19993;-66
2021/11/03 09:10:17;;;;;;;;;;;;;;;-144.99;100.00;52452.16;4989393;28;20013;-67
2021/11/03 09:12:44;;;;;;;;;;;;;;;-144.99;100.00;52456.25;4987970;28;19990;-66
2021/11/03 09:15:10;;;;;;;;;;;;;;;-144.99;100.00;52435.88;5006328;28;20169;-66
2021/11/03 09:17:38;;;;;;;;;;;;;;;-144.99;100.00;52468.47;5002586;28;20358;-66
2021/11/03 09:20:07;;;;;;;;;;;;;;;-144.99;100.00;52456.25;4993610;28;20438;-67
2021/11/03 09:22:36;;;;;;;;;;;;;;;-144.99;100.00;52448.09;4999750;28;20006;-66
2021/11/03 09:25:03;;;;;;;;;;;;;;;-144.99;100.00;52468.47;4993574;28;19998;-66
2021/11/03 09:27:30;;;;;;;;;;;;;;;-144.99;100.00;52415.47;4992849;28;20400;-65
2021/11/03 09:29:56;;;;;;;;;;;;;;;-144.99;100.00;52427.72;4993319;28;19982;-66
2021/11/03 09:32:25;;;;;;;;;;;;;;;-144.99;100.00;52382.88;4992599;28;20483;-65
2021/11/03 09:34:52;;;;;;;;;;;;;;;-144.99;100.00;52421.59;5007960;28;19986;-66
2021/11/03 09:37:23;;;;;;;;;;;;;;;-144.99;100.00;52407.31;4994023;28;19989;-66
2021/11/03 09:39:50;;;;;;;;;;;;;;;-144.99;99.23;52435.88;4993641;28;20030;-66
2021/11/03 09:42:18;;;;;;;;;;;;;;;-144.99;96.85;52415.47;4992657;28;19994;-66
2021/11/03 09:44:47;;;;;;;;;;;;;;;-144.99;92.37;52425.66;5003871;28;20025;-67
2021/11/03 09:47:19;;;;;;;;;;;;;;;-144.99;91.82;52429.75;4997821;28;19978;-66
2021/11/03 09:49:49;;;;;;;;;;;;;;;-144.99;92.08;52415.47;4993248;28;20399;-66
2021/11/03 09:52:19;;;;;;;;;;;;;;;-144.99;91.68;52419.56;4992210;28;19994;-65
2021/11/03 09:54:48;;;;;;;;;;;;;;;-144.99;90.88;52435.88;4992506;28;20312;-65
2021/11/03 09:57:20;;;;;;;;;;;;;;;-144.99;90.37;52407.31;4992302;28;19982;-66
2021/11/03 09:59:51;;;;;;;;;;;;;;;-144.99;89.21;52409.38;4992731;28;19986;-67
2021/11/03 10:02:22;;;;;;;;;;;;;;;-144.99;87.77;52374.72;5029759;22;20374;-69
2021/11/03 10:04:53;;;;;;;;;;;;;;;-144.99;87.58;52431.78;5028205;28;20444;-69
2021/11/03 10:07:28;;;;;;;;;;;;;;;-144.99;88.15;52399.19;5032083;28;19981;-69
2021/11/03 10:09:54;;;;;;;;;;;;;;;-144.99;88.23;52395.09;5033511;28;19981;-69
2021/11/03 10:12:20;;;;;;;;;;;;;;;-144.99;87.15;52391.03;5031917;28;19997;-69
2021/11/03 10:14:48;;;;;;;;;;;;;;;-144.99;85.42;52380.84;5027419;28;19973;-69
2021/11/03 10:17:19;;;;;;;;;;;;;;;-144.99;85.29;52448.09;5044679;28;20342;-69
2021/11/03 10:19:45;;;;;;;;;;;;;;;-144.99;85.33;52423.63;5040128;28;19987;-69
2021/11/03 10:22:22;;;;;;;;;;;;;;;-144.99;88.47;52431.78;5039187;28;20013;-69
2021/11/03 10:25:01;;;;;;;;;;;;;;;-144.99;90.60;52435.88;5025714;28;20223;-69
2021/11/03 10:27:28;;;;;;;;;;;;;;;-144.99;91.19;52435.88;5031793;28;19982;-69
2021/11/03 10:29:55;;;;;;;;;;;;;;;-144.99;91.07;52448.09;5032032;28;20350;-69
2021/11/03 10:32:25;;;;;;;;;;;;;;;-144.99;91.12;52439.94;5032011;28;20489;-68
2021/11/03 10:34:59;;;;;;;;;;;;;;;-144.99;91.65;52427.72;5044629;28;19958;-69
2021/11/03 10:37:27;;;;;;;;;;;;;;;-144.99;92.44;52446.06;5019432;28;19981;-69
2021/11/03 10:39:59;;;;;;;;;;;;;;;-144.99;92.44;52391.03;5032843;28;19992;-69
2021/11/03 10:42:28;;;;;;;;;;;;;;;-144.99;91.59;52448.09;5036767;28;20002;-69
2021/11/03 10:45:10;;;;;;;;;;;;;;;-144.99;91.66;52423.63;5037692;28;20462;-69
2021/11/03 10:47:38;;;;;;;;;;;;;;;-144.99;92.23;52456.25;5053427;28;20032;-69
2021/11/03 10:50:15;;;;;;;;;;;;;;;-144.99;91.96;52403.25;5033713;28;19982;-68
2021/11/03 10:52:47;;;;;;;;;;;;;;;-144.99;90.53;52391.03;5037697;28;20096;-68
2021/11/03 10:55:23;;;;;;;;;;;;;;;-144.99;89.08;52446.06;5028904;28;20004;-69
2021/11/03 10:57:55;;;;;;;;;;;;;;;-144.99;88.81;52439.94;5031270;28;20012;-70
2021/11/03 11:00:23;;;;;;;;;;;;;;;-144.99;89.81;52454.22;5032000;28;19986;-70
2021/11/03 11:02:52;;;;;;;;;;;;;;;-144.99;90.09;52419.56;5031692;28;20001;-70
2021/11/03 11:05:21;;;;;;;;;;;;;;;-144.99;89.83;52431.78;5029339;28;20029;-70
2021/11/03 11:07:51;;;;;;;;;;;;;;;-144.99;89.83;52435.88;5031210;28;19985;-70
2021/11/03 11:10:20;;;;;;;;;;;;;;;-144.99;86.93;52423.63;5031621;28;20075;-68
2021/11/03 11:12:48;;;;;;;;;;;;;;;-144.99;85.97;52407.31;5032546;28;19990;-68
2021/11/03 11:15:19;;;;;;;;;;;;;;;-144.99;85.98;52439.94;5038338;28;20364;-68
2021/11/03 11:17:49;;;;;;;;;;;;;;;-144.99;86.61;52431.78;5033589;28;19980;-68
2021/11/03 11:20:18;;;;;;;;;;;;;;;-144.99;87.03;52444.03;5031016;28;20039;-68
2021/11/03 11:22:54;;;;;;;;;;;;;;;-144.99;87.29;52419.56;5038172;28;20401;-68
2021/11/03 11:25:24;;;;;;;;;;;;;;;-144.99;87.97;52415.47;5031064;28;20005;-68
2021/11/03 11:28:01;;;;;;;;;;;;;;;-144.99;87.22;52446.06;5029880;28;19976;-69
2021/11/03 11:30:33;;;;;;;;;;;;;;;-144.99;87.95;52439.94;5028444;28;19973;-69
2021/11/03 11:33:02;;;;;;;;;;;;;;;-144.99;86.81;52429.75;5034006;28;20477;-69
2021/11/03 11:35:34;;;;;;;;;;;;;;;-144.99;85.81;52446.06;5041722;28;20504;-69
2021/11/03 11:38:05;;;;;;;;;;;;;;;-144.99;85.68;52460.31;5038886;28;20421;-69
2021/11/03 11:40:41;;;;;;;;;;;;;;;-144.99;86.75;52415.47;5045487;28;19991;-70
2021/11/03 11:43:13;;;;;;;;;;;;;;;-144.99;86.55;52437.91;5047189;28;19993;-69
2021/11/03 11:45:39;;;;;;;;;;;;;;;-144.99;86.47;52435.88;5053335;28;20170;-68
2021/11/03 11:48:07;;;;;;;;;;;;;;;-144.99;86.37;52401.22;5037860;28;20037;-68
2021/11/03 11:50:39;;;;;;;;;;;;;;;-144.99;85.12;52423.63;5034923;28;19981;-68
2021/11/03 11:53:19;;;;;;;;;;;;;;;-144.99;83.96;52391.03;5034069;28;20004;-69
2021/11/03 11:56:08;;;;;;;;;;;;;;;-144.99;83.89;52431.78;5031129;28;19997;-69
2021/11/03 11:58:35;;;;;;;;;;;;;;;-144.99;84.21;52435.88;5023410;28;20403;-68
2021/11/03 12:01:17;;;;;;;;;;;;;;;-144.99;84.58;52427.72;5025068;28;19989;-71
2021/11/03 12:03:45;;;;;;;;;;;;;;;-144.99;84.77;52431.78;5030798;28;20393;-71
2021/11/03 12:06:12;;;;;;;;;;;;;;;-144.99;84.79;52403.25;5030323;28;20024;-68
2021/11/03 12:08:57;;;;;;;;;;;;;;;-144.99;84.22;52470.50;5021409;28;19974;-69
2021/11/03 12:11:26;;;;;;;;;;;;;;;-144.99;83.89;52444.03;5017325;28;19982;-69
2021/11/03 12:14:01;;;;;;;;;;;;;;;-144.99;84.68;52423.63;5038257;28;19993;-69
2021/11/03 12:16:32;;;;;;;;;;;;;;;-144.99;85.29;52391.03;5024391;28;20169;-68
2021/11/03 12:18:59;;;;;;;;;;;;;;;-144.99;86.44;52480.72;5038611;28;20005;-68
2021/11/03 12:21:56;;;;;;;;;;;;;;;-144.99;85.52;52431.78;5044411;28;19985;-68
2021/11/03 12:24:28;;;;;;;;;;;;;;;-144.99;85.51;52441.97;4988274;28;20004;-70
2021/11/03 12:27:14;;;;;;;;;;;;;;;-144.99;85.50;52407.31;5024842;28;19984;-68